sensor_id;sensor_type;location;lat;lon;timestamp;P1;P2;P0
72509;PMS5003;60532;56.114;40.350;2023-08-01T00:02:00;9.60;8.00;5.20
72509;PMS5003;60532;56.114;40.350;2023-08-01T00:04:00;5.25;5.25;4.00
72509;PMS5003;60532;56.114;40.350;2023-08-01T00:06:01;7.25;5.25;3.00
72509;PMS5003;60532;56.114;40.350;2023-08-01T00:08:01;5.75;5.75;3.00
72509;PMS5003;60532;56.114;40.350;2023-08-01T00:10:03;10.00;9.60;6.00
72509;PMS5003;60532;56.114;40.350;2023-08-01T00:12:03;8.40;8.40;5.80
72509;PMS5003;60532;56.114;40.350;2023-08-01T00:14:04;12.00;9.50;6.00
72509;PMS5003;60532;56.114;40.350;2023-08-01T00:16:04;9.00;7.25;6.00
72509;PMS5003;60532;56.114;40.350;2023-08-01T00:18:05;8.00;8.00;5.00
72509;PMS5003;60532;56.114;40.350;2023-08-01T00:20:06;10.25;8.00;5.00
72509;PMS5003;60532;56.114;40.350;2023-08-01T00:22:06;9.80;9.80;6.00
72509;PMS5003;60532;56.114;40.350;2023-08-01T00:24:07;5.75;5.50;3.00
72509;PMS5003;60532;56.114;40.350;2023-08-01T00:26:08;9.00;9.00;5.80
72509;PMS5003;60532;56.114;40.350;2023-08-01T00:28:08;8.75;8.75;6.00
72509;PMS5003;60532;56.114;40.350;2023-08-01T00:30:09;9.50;7.25;6.00
72509;PMS5003;60532;56.114;40.350;2023-08-01T00:32:09;9.50;9.50;5.00
72509;PMS5003;60532;56.114;40.350;2023-08-01T00:34:10;10.25;8.00;5.00
72509;PMS5003;60532;56.114;40.350;2023-08-01T00:36:10;6.25;6.25;4.00
72509;PMS5003;60532;56.114;40.350;2023-08-01T00:38:11;9.75;8.50;5.50
72509;PMS5003;60532;56.114;40.350;2023-08-01T00:40:11;7.75;7.75;5.00
72509;PMS5003;60532;56.114;40.350;2023-08-01T00:42:12;8.75;8.00;6.25
72509;PMS5003;60532;56.114;40.350;2023-08-01T00:44:13;11.80;11.40;7.60
72509;PMS5003;60532;56.114;40.350;2023-08-01T00:46:14;9.00;9.00;6.00
72509;PMS5003;60532;56.114;40.350;2023-08-01T00:48:14;14.50;10.75;5.75
72509;PMS5003;60532;56.114;40.350;2023-08-01T00:50:15;9.00;9.00;6.00
72509;PMS5003;60532;56.114;40.350;2023-08-01T00:52:16;9.25;7.25;5.75
72509;PMS5003;60532;56.114;40.350;2023-08-01T00:54:17;12.80;9.60;6.40
72509;PMS5003;60532;56.114;40.350;2023-08-01T00:56:17;11.75;9.75;6.00
72509;PMS5003;60532;56.114;40.350;2023-08-01T00:58:18;7.60;7.00;5.40
72509;PMS5003;60532;56.114;40.350;2023-08-01T01:00:19;10.20;10.20;6.20
72509;PMS5003;60532;56.114;40.350;2023-08-01T01:02:19;11.00;10.75;6.00
72509;PMS5003;60532;56.114;40.350;2023-08-01T01:04:20;11.00;10.00;5.00
72509;PMS5003;60532;56.114;40.350;2023-08-01T01:06:24;12.00;10.00;5.00
72509;PMS5003;60532;56.114;40.350;2023-08-01T01:08:28;12.40;11.40;5.00
72509;PMS5003;60532;56.114;40.350;2023-08-01T01:10:29;15.75;13.25;7.00
72509;PMS5003;60532;56.114;40.350;2023-08-01T01:12:29;10.50;10.00;5.50
72509;PMS5003;60532;56.114;40.350;2023-08-01T01:14:29;10.00;10.00;7.00
72509;PMS5003;60532;56.114;40.350;2023-08-01T01:16:30;10.50;10.50;6.00
72509;PMS5003;60532;56.114;40.350;2023-08-01T01:18:30;14.00;10.50;6.75
72509;PMS5003;60532;56.114;40.350;2023-08-01T01:20:34;9.00;8.75;5.75
72509;PMS5003;60532;56.114;40.350;2023-08-01T01:22:35;14.80;11.60;6.40
72509;PMS5003;60532;56.114;40.350;2023-08-01T01:24:36;11.60;11.60;7.40
72509;PMS5003;60532;56.114;40.350;2023-08-01T01:26:37;11.80;10.40;6.60
72509;PMS5003;60532;56.114;40.350;2023-08-01T01:28:38;12.60;12.60;8.00
72509;PMS5003;60532;56.114;40.350;2023-08-01T01:30:39;11.80;10.20;6.00
72509;PMS5003;60532;56.114;40.350;2023-08-01T01:32:41;10.20;10.20;7.00
72509;PMS5003;60532;56.114;40.350;2023-08-01T01:34:41;13.25;13.25;7.00
72509;PMS5003;60532;56.114;40.350;2023-08-01T01:36:42;12.00;12.00;7.00
72509;PMS5003;60532;56.114;40.350;2023-08-01T01:38:42;12.50;12.50;6.75
72509;PMS5003;60532;56.114;40.350;2023-08-01T01:40:43;11.25;11.00;7.00
72509;PMS5003;60532;56.114;40.350;2023-08-01T01:42:43;11.50;10.25;8.00
72509;PMS5003;60532;56.114;40.350;2023-08-01T01:44:44;11.25;11.25;6.00
72509;PMS5003;60532;56.114;40.350;2023-08-01T01:46:44;15.25;14.00;8.25
72509;PMS5003;60532;56.114;40.350;2023-08-01T01:48:45;10.75;10.00;6.00
72509;PMS5003;60532;56.114;40.350;2023-08-01T01:50:45;13.25;12.00;7.00
72509;PMS5003;60532;56.114;40.350;2023-08-01T01:52:46;10.25;10.25;7.00
72509;PMS5003;60532;56.114;40.350;2023-08-01T01:54:46;12.50;9.25;6.75
72509;PMS5003;60532;56.114;40.350;2023-08-01T01:56:47;10.75;10.00;7.00
72509;PMS5003;60532;56.114;40.350;2023-08-01T01:58:47;13.00;10.00;6.00
72509;PMS5003;60532;56.114;40.350;2023-08-01T02:00:48;12.00;11.00;6.00
72509;PMS5003;60532;56.114;40.350;2023-08-01T02:02:49;11.20;10.60;5.60
72509;PMS5003;60532;56.114;40.350;2023-08-01T02:04:50;10.25;9.00;5.75
72509;PMS5003;60532;56.114;40.350;2023-08-01T02:06:50;10.00;10.00;6.00
72509;PMS5003;60532;56.114;40.350;2023-08-01T02:08:53;7.60;7.60;6.00
72509;PMS5003;60532;56.114;40.350;2023-08-01T02:10:53;7.25;7.25;5.50
72509;PMS5003;60532;56.114;40.350;2023-08-01T02:12:55;9.40;9.40;5.80
72509;PMS5003;60532;56.114;40.350;2023-08-01T02:14:55;16.00;12.25;6.75
72509;PMS5003;60532;56.114;40.350;2023-08-01T02:16:56;10.25;10.25;7.00
72509;PMS5003;60532;56.114;40.350;2023-08-01T02:18:56;13.75;10.00;6.50
72509;PMS5003;60532;56.114;40.350;2023-08-01T02:20:56;10.00;10.00;5.75
72509;PMS5003;60532;56.114;40.350;2023-08-01T02:22:57;13.00;11.25;7.25
72509;PMS5003;60532;56.114;40.350;2023-08-01T02:24:57;8.75;8.75;5.50
72509;PMS5003;60532;56.114;40.350;2023-08-01T02:26:58;9.00;9.00;4.00
72509;PMS5003;60532;56.114;40.350;2023-08-01T02:28:58;10.00;10.00;6.00
72509;PMS5003;60532;56.114;40.350;2023-08-01T02:30:59;10.00;10.00;5.25
72509;PMS5003;60532;56.114;40.350;2023-08-01T02:32:59;8.50;6.50;3.00
72509;PMS5003;60532;56.114;40.350;2023-08-01T02:35:00;13.00;11.75;6.50
72509;PMS5003;60532;56.114;40.350;2023-08-01T02:37:00;9.75;9.00;4.50
72509;PMS5003;60532;56.114;40.350;2023-08-01T02:39:01;12.25;11.25;6.25
72509;PMS5003;60532;56.114;40.350;2023-08-01T02:41:01;9.25;9.25;6.75
72509;PMS5003;60532;56.114;40.350;2023-08-01T02:43:02;13.00;13.00;8.50
72509;PMS5003;60532;56.114;40.350;2023-08-01T02:45:02;8.75;8.00;6.00
72509;PMS5003;60532;56.114;40.350;2023-08-01T02:47:03;10.75;9.50;7.00
72509;PMS5003;60532;56.114;40.350;2023-08-01T02:49:03;12.00;10.25;7.00
72509;PMS5003;60532;56.114;40.350;2023-08-01T02:51:04;12.50;9.75;6.00
72509;PMS5003;60532;56.114;40.350;2023-08-01T02:53:04;12.00;11.00;7.00
72509;PMS5003;60532;56.114;40.350;2023-08-01T02:55:05;7.00;7.00;5.00
72509;PMS5003;60532;56.114;40.350;2023-08-01T02:57:05;10.50;9.75;6.00
72509;PMS5003;60532;56.114;40.350;2023-08-01T02:59:09;9.00;8.00;5.25
72509;PMS5003;60532;56.114;40.350;2023-08-01T03:01:09;6.20;6.00;1.00
72509;PMS5003;60532;56.114;40.350;2023-08-01T03:03:10;8.00;8.00;6.75
72509;PMS5003;60532;56.114;40.350;2023-08-01T03:05:11;12.25;8.25;6.50
72509;PMS5003;60532;56.114;40.350;2023-08-01T03:07:11;15.25;13.00;7.00
72509;PMS5003;60532;56.114;40.350;2023-08-01T03:09:11;7.00;6.00;5.00
72509;PMS5003;60532;56.114;40.350;2023-08-01T03:11:12;14.00;12.50;6.75
72509;PMS5003;60532;56.114;40.350;2023-08-01T03:13:12;10.75;10.75;7.00
72509;PMS5003;60532;56.114;40.350;2023-08-01T03:15:13;10.75;9.50;6.00
72509;PMS5003;60532;56.114;40.350;2023-08-01T03:17:13;11.50;10.50;6.00
72509;PMS5003;60532;56.114;40.350;2023-08-01T03:19:14;11.00;11.00;6.25
72509;PMS5003;60532;56.114;40.350;2023-08-01T03:21:14;10.00;10.00;6.00
72509;PMS5003;60532;56.114;40.350;2023-08-01T03:23:15;10.75;10.25;6.75
72509;PMS5003;60532;56.114;40.350;2023-08-01T03:25:15;9.75;9.75;6.00
72509;PMS5003;60532;56.114;40.350;2023-08-01T03:27:16;8.75;6.00;4.00
72509;PMS5003;60532;56.114;40.350;2023-08-01T03:29:16;11.00;10.00;6.25
72509;PMS5003;60532;56.114;40.350;2023-08-01T03:31:17;13.25;10.00;5.75
72509;PMS5003;60532;56.114;40.350;2023-08-01T03:33:17;12.50;12.50;7.25
72509;PMS5003;60532;56.114;40.350;2023-08-01T03:35:18;10.75;10.75;7.00
72509;PMS5003;60532;56.114;40.350;2023-08-01T03:37:18;10.00;9.25;6.00
72509;PMS5003;60532;56.114;40.350;2023-08-01T03:39:18;10.00;10.00;6.00
72509;PMS5003;60532;56.114;40.350;2023-08-01T03:41:20;8.00;8.00;5.60
72509;PMS5003;60532;56.114;40.350;2023-08-01T03:43:20;14.50;10.25;6.75
72509;PMS5003;60532;56.114;40.350;2023-08-01T03:45:23;8.50;8.50;5.50
72509;PMS5003;60532;56.114;40.350;2023-08-01T03:47:24;11.00;11.00;7.00
72509;PMS5003;60532;56.114;40.350;2023-08-01T03:49:25;11.25;10.25;6.00
72509;PMS5003;60532;56.114;40.350;2023-08-01T03:51:25;9.75;9.00;5.50
72509;PMS5003;60532;56.114;40.350;2023-08-01T03:53:26;10.75;9.00;6.00
72509;PMS5003;60532;56.114;40.350;2023-08-01T03:55:26;13.75;13.00;7.00
72509;PMS5003;60532;56.114;40.350;2023-08-01T03:57:27;11.50;11.00;7.00
72509;PMS5003;60532;56.114;40.350;2023-08-01T03:59:27;10.50;10.50;5.25
72509;PMS5003;60532;56.114;40.350;2023-08-01T04:01:27;12.00;12.00;7.00
72509;PMS5003;60532;56.114;40.350;2023-08-01T04:03:28;15.50;15.25;7.75
72509;PMS5003;60532;56.114;40.350;2023-08-01T04:05:28;26.25;22.50;14.00
72509;PMS5003;60532;56.114;40.350;2023-08-01T04:07:29;18.25;16.75;10.25
72509;PMS5003;60532;56.114;40.350;2023-08-01T04:09:29;9.25;9.25;3.50
72509;PMS5003;60532;56.114;40.350;2023-08-01T04:11:30;15.00;11.50;7.50
72509;PMS5003;60532;56.114;40.350;2023-08-01T04:13:30;14.00;14.00;8.67
72509;PMS5003;60532;56.114;40.350;2023-08-01T04:15:31;11.67;9.67;6.33
72509;PMS5003;60532;56.114;40.350;2023-08-01T04:17:31;7.67;6.00;4.00
72509;PMS5003;60532;56.114;40.350;2023-08-01T04:19:31;7.33;7.33;4.00
72509;PMS5003;60532;56.114;40.350;2023-08-01T04:21:32;10.33;10.33;7.00
72509;PMS5003;60532;56.114;40.350;2023-08-01T04:23:32;11.67;10.33;6.00
72509;PMS5003;60532;56.114;40.350;2023-08-01T04:25:33;9.67;9.00;4.67
72509;PMS5003;60532;56.114;40.350;2023-08-01T04:27:33;10.67;9.67;5.33
72509;PMS5003;60532;56.114;40.350;2023-08-01T04:29:34;10.00;10.00;5.33
72509;PMS5003;60532;56.114;40.350;2023-08-01T04:31:34;9.33;9.33;5.00
72509;PMS5003;60532;56.114;40.350;2023-08-01T04:33:35;11.00;9.00;6.00
72509;PMS5003;60532;56.114;40.350;2023-08-01T04:35:35;8.33;8.33;5.00
72509;PMS5003;60532;56.114;40.350;2023-08-01T04:37:36;13.67;12.00;7.67
72509;PMS5003;60532;56.114;40.350;2023-08-01T04:39:36;12.33;10.67;6.33
72509;PMS5003;60532;56.114;40.350;2023-08-01T04:41:37;9.00;9.00;6.00
72509;PMS5003;60532;56.114;40.350;2023-08-01T04:43:37;9.33;9.33;6.00
72509;PMS5003;60532;56.114;40.350;2023-08-01T04:45:38;9.00;9.00;6.00
72509;PMS5003;60532;56.114;40.350;2023-08-01T04:47:38;10.67;10.67;7.67
72509;PMS5003;60532;56.114;40.350;2023-08-01T04:49:39;11.67;10.00;6.00
72509;PMS5003;60532;56.114;40.350;2023-08-01T04:51:39;7.00;7.00;5.00
72509;PMS5003;60532;56.114;40.350;2023-08-01T04:53:40;8.00;8.00;4.50
72509;PMS5003;60532;56.114;40.350;2023-08-01T04:55:40;6.75;6.75;5.00
72509;PMS5003;60532;56.114;40.350;2023-08-01T04:57:40;5.25;5.25;4.00
72509;PMS5003;60532;56.114;40.350;2023-08-01T04:59:41;8.00;7.00;5.00
72509;PMS5003;60532;56.114;40.350;2023-08-01T05:01:41;6.00;6.00;4.50
72509;PMS5003;60532;56.114;40.350;2023-08-01T05:03:42;7.50;6.25;4.75
72509;PMS5003;60532;56.114;40.350;2023-08-01T05:05:42;8.25;8.00;4.75
72509;PMS5003;60532;56.114;40.350;2023-08-01T05:07:43;8.25;7.50;5.00
72509;PMS5003;60532;56.114;40.350;2023-08-01T05:09:43;7.25;6.00;4.25
72509;PMS5003;60532;56.114;40.350;2023-08-01T05:11:43;6.25;5.75;2.25
72509;PMS5003;60532;56.114;40.350;2023-08-01T05:13:44;9.00;8.00;5.00
72509;PMS5003;60532;56.114;40.350;2023-08-01T05:15:45;9.50;9.00;5.25
72509;PMS5003;60532;56.114;40.350;2023-08-01T05:17:47;9.20;8.80;5.00
72509;PMS5003;60532;56.114;40.350;2023-08-01T05:19:48;7.50;7.50;5.00
72509;PMS5003;60532;56.114;40.350;2023-08-01T05:21:48;7.50;7.50;4.75
72509;PMS5003;60532;56.114;40.350;2023-08-01T05:23:49;10.25;6.75;4.00
72509;PMS5003;60532;56.114;40.350;2023-08-01T05:25:49;8.25;8.00;4.75
72509;PMS5003;60532;56.114;40.350;2023-08-01T05:27:49;12.50;8.25;5.25
72509;PMS5003;60532;56.114;40.350;2023-08-01T05:29:50;8.00;7.00;4.50
72509;PMS5003;60532;56.114;40.350;2023-08-01T05:31:50;8.00;7.75;5.50
72509;PMS5003;60532;56.114;40.350;2023-08-01T05:33:51;8.00;8.00;5.75
72509;PMS5003;60532;56.114;40.350;2023-08-01T05:35:51;7.00;7.00;4.00
72509;PMS5003;60532;56.114;40.350;2023-08-01T05:37:52;8.75;7.75;4.00
72509;PMS5003;60532;56.114;40.350;2023-08-01T05:39:52;9.75;8.00;4.75
72509;PMS5003;60532;56.114;40.350;2023-08-01T05:41:53;7.25;7.25;4.00
72509;PMS5003;60532;56.114;40.350;2023-08-01T05:43:53;6.50;6.50;5.00
72509;PMS5003;60532;56.114;40.350;2023-08-01T05:45:54;10.80;9.60;5.80
72509;PMS5003;60532;56.114;40.350;2023-08-01T05:47:54;11.25;9.75;5.75
72509;PMS5003;60532;56.114;40.350;2023-08-01T05:49:55;12.25;10.00;6.50
72509;PMS5003;60532;56.114;40.350;2023-08-01T05:51:55;8.50;8.50;5.75
72509;PMS5003;60532;56.114;40.350;2023-08-01T05:53:56;9.50;9.50;6.00
72509;PMS5003;60532;56.114;40.350;2023-08-01T05:55:56;10.50;10.00;7.00
72509;PMS5003;60532;56.114;40.350;2023-08-01T05:57:57;9.25;8.00;6.00
72509;PMS5003;60532;56.114;40.350;2023-08-01T05:59:57;10.25;10.00;5.25
72509;PMS5003;60532;56.114;40.350;2023-08-01T06:01:58;10.60;10.60;7.00
72509;PMS5003;60532;56.114;40.350;2023-08-01T06:03:58;12.00;11.00;7.00
72509;PMS5003;60532;56.114;40.350;2023-08-01T06:05:59;9.50;9.50;6.75
72509;PMS5003;60532;56.114;40.350;2023-08-01T06:07:59;14.25;11.50;6.25
72509;PMS5003;60532;56.114;40.350;2023-08-01T06:10:00;8.50;8.50;6.50
72509;PMS5003;60532;56.114;40.350;2023-08-01T06:12:00;11.75;9.00;6.00
72509;PMS5003;60532;56.114;40.350;2023-08-01T06:14:02;12.20;10.60;6.80
72509;PMS5003;60532;56.114;40.350;2023-08-01T06:16:03;9.00;8.00;5.00
72509;PMS5003;60532;56.114;40.350;2023-08-01T06:18:03;9.50;6.25;3.25
72509;PMS5003;60532;56.114;40.350;2023-08-01T06:20:04;10.25;9.00;6.00
72509;PMS5003;60532;56.114;40.350;2023-08-01T06:22:05;11.60;11.20;8.00
72509;PMS5003;60532;56.114;40.350;2023-08-01T06:24:05;15.00;10.75;6.50
72509;PMS5003;60532;56.114;40.350;2023-08-01T06:26:06;10.00;9.00;7.00
72509;PMS5003;60532;56.114;40.350;2023-08-01T06:28:06;9.25;9.25;6.25
72509;PMS5003;60532;56.114;40.350;2023-08-01T06:30:07;9.25;8.50;4.75
72509;PMS5003;60532;56.114;40.350;2023-08-01T06:32:07;9.40;7.20;3.80
72509;PMS5003;60532;56.114;40.350;2023-08-01T06:34:08;16.00;13.00;7.00
72509;PMS5003;60532;56.114;40.350;2023-08-01T06:36:08;20.50;15.75;7.50
72509;PMS5003;60532;56.114;40.350;2023-08-01T06:38:09;37.75;29.00;17.00
72509;PMS5003;60532;56.114;40.350;2023-08-01T06:40:09;38.00;28.75;15.00
72509;PMS5003;60532;56.114;40.350;2023-08-01T06:42:10;37.25;27.50;14.25
72509;PMS5003;60532;56.114;40.350;2023-08-01T06:44:10;51.50;34.50;20.50
72509;PMS5003;60532;56.114;40.350;2023-08-01T06:46:11;35.75;24.25;13.25
72509;PMS5003;60532;56.114;40.350;2023-08-01T06:48:11;38.50;25.50;13.25
72509;PMS5003;60532;56.114;40.350;2023-08-01T06:50:11;22.00;16.50;9.00
72509;PMS5003;60532;56.114;40.350;2023-08-01T06:52:12;14.00;10.00;5.00
72509;PMS5003;60532;56.114;40.350;2023-08-01T06:54:12;10.00;10.00;4.50
72509;PMS5003;60532;56.114;40.350;2023-08-01T06:56:13;8.25;5.75;4.00
72509;PMS5003;60532;56.114;40.350;2023-08-01T06:58:13;10.00;8.25;4.25
72509;PMS5003;60532;56.114;40.350;2023-08-01T07:00:14;3.25;3.25;3.25
72509;PMS5003;60532;56.114;40.350;2023-08-01T07:02:14;7.25;7.25;5.00
72509;PMS5003;60532;56.114;40.350;2023-08-01T07:04:15;7.20;5.00;3.40
72509;PMS5003;60532;56.114;40.350;2023-08-01T07:06:16;6.50;6.50;4.00
72509;PMS5003;60532;56.114;40.350;2023-08-01T07:08:16;6.50;6.50;3.75
72509;PMS5003;60532;56.114;40.350;2023-08-01T07:10:17;9.25;9.00;5.00
72509;PMS5003;60532;56.114;40.350;2023-08-01T07:12:17;12.33;10.33;5.00
72509;PMS5003;60532;56.114;40.350;2023-08-01T07:14:18;10.67;9.00;5.33
72509;PMS5003;60532;56.114;40.350;2023-08-01T07:16:18;8.33;8.33;4.33
72509;PMS5003;60532;56.114;40.350;2023-08-01T07:18:19;7.00;4.67;2.67
72509;PMS5003;60532;56.114;40.350;2023-08-01T07:20:19;10.33;7.67;4.67
72509;PMS5003;60532;56.114;40.350;2023-08-01T07:22:20;7.67;6.00;4.67
72509;PMS5003;60532;56.114;40.350;2023-08-01T07:24:20;6.67;6.67;4.67
72509;PMS5003;60532;56.114;40.350;2023-08-01T07:26:21;13.00;7.33;5.00
72509;PMS5003;60532;56.114;40.350;2023-08-01T07:28:21;6.67;6.33;4.00
72509;PMS5003;60532;56.114;40.350;2023-08-01T07:30:21;12.67;7.67;4.67
72509;PMS5003;60532;56.114;40.350;2023-08-01T07:32:22;9.00;8.00;5.00
72509;PMS5003;60532;56.114;40.350;2023-08-01T07:34:22;9.00;7.33;5.00
72509;PMS5003;60532;56.114;40.350;2023-08-01T07:36:23;10.00;8.67;4.00
72509;PMS5003;60532;56.114;40.350;2023-08-01T07:38:24;8.33;7.00;4.00
72509;PMS5003;60532;56.114;40.350;2023-08-01T07:40:24;8.33;8.00;5.33
72509;PMS5003;60532;56.114;40.350;2023-08-01T07:42:25;8.00;8.00;5.00
72509;PMS5003;60532;56.114;40.350;2023-08-01T07:44:25;8.33;8.33;5.33
72509;PMS5003;60532;56.114;40.350;2023-08-01T07:46:26;6.00;6.00;4.00
72509;PMS5003;60532;56.114;40.350;2023-08-01T07:48:26;9.33;8.67;5.00
72509;PMS5003;60532;56.114;40.350;2023-08-01T07:50:27;8.67;8.67;4.33
72509;PMS5003;60532;56.114;40.350;2023-08-01T07:52:27;8.00;6.33;5.00
72509;PMS5003;60532;56.114;40.350;2023-08-01T07:54:27;6.00;6.00;5.00
72509;PMS5003;60532;56.114;40.350;2023-08-01T07:56:28;6.67;6.67;5.33
72509;PMS5003;60532;56.114;40.350;2023-08-01T07:58:29;6.00;6.00;5.00
72509;PMS5003;60532;56.114;40.350;2023-08-01T08:00:30;7.00;7.00;5.00
72509;PMS5003;60532;56.114;40.350;2023-08-01T08:02:30;7.33;7.33;5.00
72509;PMS5003;60532;56.114;40.350;2023-08-01T08:04:31;6.00;6.00;4.00
72509;PMS5003;60532;56.114;40.350;2023-08-01T08:06:31;6.00;5.00;4.00
72509;PMS5003;60532;56.114;40.350;2023-08-01T08:08:32;6.67;6.67;4.33
72509;PMS5003;60532;56.114;40.350;2023-08-01T08:10:33;5.75;5.75;5.00
72509;PMS5003;60532;56.114;40.350;2023-08-01T08:12:34;6.33;6.33;4.33
72509;PMS5003;60532;56.114;40.350;2023-08-01T08:14:34;6.33;6.33;4.67
72509;PMS5003;60532;56.114;40.350;2023-08-01T08:16:35;6.00;6.00;4.00
72509;PMS5003;60532;56.114;40.350;2023-08-01T08:18:35;5.67;5.67;3.67
72509;PMS5003;60532;56.114;40.350;2023-08-01T08:20:42;7.00;5.00;4.00
72509;PMS5003;60532;56.114;40.350;2023-08-01T08:22:43;5.00;5.00;3.25
72509;PMS5003;60532;56.114;40.350;2023-08-01T08:24:43;8.33;6.00;4.67
72509;PMS5003;60532;56.114;40.350;2023-08-01T08:26:44;6.67;6.67;4.33
72509;PMS5003;60532;56.114;40.350;2023-08-01T08:28:45;8.00;6.25;4.75
72509;PMS5003;60532;56.114;40.350;2023-08-01T08:30:46;5.33;5.00;4.33
72509;PMS5003;60532;56.114;40.350;2023-08-01T08:32:47;5.00;5.00;4.00
72509;PMS5003;60532;56.114;40.350;2023-08-01T08:34:47;7.00;7.00;4.00
72509;PMS5003;60532;56.114;40.350;2023-08-01T08:36:48;5.00;5.00;4.00
72509;PMS5003;60532;56.114;40.350;2023-08-01T08:38:50;6.25;6.25;4.00
72509;PMS5003;60532;56.114;40.350;2023-08-01T08:42:52;8.00;6.00;4.00
72509;PMS5003;60532;56.114;40.350;2023-08-01T08:44:54;7.00;6.25;4.00
72509;PMS5003;60532;56.114;40.350;2023-08-01T08:46:55;5.00;5.00;3.75
72509;PMS5003;60532;56.114;40.350;2023-08-01T08:48:59;5.25;5.25;4.00
72509;PMS5003;60532;56.114;40.350;2023-08-01T08:51:01;6.50;6.50;4.00
72509;PMS5003;60532;56.114;40.350;2023-08-01T08:53:01;7.25;6.50;3.75
72509;PMS5003;60532;56.114;40.350;2023-08-01T08:55:02;5.67;5.67;4.00
72509;PMS5003;60532;56.114;40.350;2023-08-01T08:57:04;5.33;5.33;4.00
72509;PMS5003;60532;56.114;40.350;2023-08-01T08:59:05;5.75;5.75;4.00
72509;PMS5003;60532;56.114;40.350;2023-08-01T09:01:06;6.33;6.33;4.00
72509;PMS5003;60532;56.114;40.350;2023-08-01T09:03:08;6.50;5.75;3.50
72509;PMS5003;60532;56.114;40.350;2023-08-01T09:05:08;5.00;5.00;4.00
72509;PMS5003;60532;56.114;40.350;2023-08-01T09:07:09;6.00;6.00;4.00
72509;PMS5003;60532;56.114;40.350;2023-08-01T09:09:12;6.50;6.50;5.00
72509;PMS5003;60532;56.114;40.350;2023-08-01T09:11:13;7.25;7.25;5.25
72509;PMS5003;60532;56.114;40.350;2023-08-01T09:13:13;5.33;5.33;4.00
72509;PMS5003;60532;56.114;40.350;2023-08-01T09:15:14;8.25;7.00;5.00
72509;PMS5003;60532;56.114;40.350;2023-08-01T09:17:14;6.00;6.00;4.00
72509;PMS5003;60532;56.114;40.350;2023-08-01T09:19:20;6.00;6.00;4.00
72509;PMS5003;60532;56.114;40.350;2023-08-01T09:21:21;5.00;5.00;4.00
72509;PMS5003;60532;56.114;40.350;2023-08-01T09:23:24;5.75;4.75;3.75
72509;PMS5003;60532;56.114;40.350;2023-08-01T09:25:31;6.75;5.25;4.00
72509;PMS5003;60532;56.114;40.350;2023-08-01T09:27:32;6.00;6.00;4.50
72509;PMS5003;60532;56.114;40.350;2023-08-01T09:29:33;5.00;5.00;4.00
72509;PMS5003;60532;56.114;40.350;2023-08-01T09:31:34;7.00;7.00;4.00
72509;PMS5003;60532;56.114;40.350;2023-08-01T09:33:39;8.00;8.00;5.50
72509;PMS5003;60532;56.114;40.350;2023-08-01T09:35:40;7.50;6.75;5.00
72509;PMS5003;60532;56.114;40.350;2023-08-01T09:37:41;6.00;6.00;4.00
72509;PMS5003;60532;56.114;40.350;2023-08-01T09:39:42;7.75;6.00;4.50
72509;PMS5003;60532;56.114;40.350;2023-08-01T09:41:42;6.67;6.67;5.00
72509;PMS5003;60532;56.114;40.350;2023-08-01T09:43:44;6.00;6.00;5.00
72509;PMS5003;60532;56.114;40.350;2023-08-01T09:45:52;7.25;7.00;4.00
72509;PMS5003;60532;56.114;40.350;2023-08-01T09:47:52;7.25;5.75;3.00
72509;PMS5003;60532;56.114;40.350;2023-08-01T09:49:53;5.00;5.00;4.00
72509;PMS5003;60532;56.114;40.350;2023-08-01T09:51:54;5.00;5.00;4.00
72509;PMS5003;60532;56.114;40.350;2023-08-01T09:53:55;5.00;5.00;3.00
72509;PMS5003;60532;56.114;40.350;2023-08-01T09:55:56;6.00;6.00;4.50
72509;PMS5003;60532;56.114;40.350;2023-08-01T09:57:59;6.75;6.75;5.00
72509;PMS5003;60532;56.114;40.350;2023-08-01T10:00:00;7.25;7.00;5.00
72509;PMS5003;60532;56.114;40.350;2023-08-01T10:02:00;9.00;8.00;6.00
72509;PMS5003;60532;56.114;40.350;2023-08-01T10:04:01;6.75;6.75;5.00
72509;PMS5003;60532;56.114;40.350;2023-08-01T10:06:03;7.50;6.50;4.25
72509;PMS5003;60532;56.114;40.350;2023-08-01T10:08:03;5.33;5.33;4.33
72509;PMS5003;60532;56.114;40.350;2023-08-01T10:10:04;7.67;6.00;5.00
72509;PMS5003;60532;56.114;40.350;2023-08-01T10:12:05;9.50;7.00;4.00
72509;PMS5003;60532;56.114;40.350;2023-08-01T10:14:06;5.75;5.00;3.00
72509;PMS5003;60532;56.114;40.350;2023-08-01T10:16:07;6.33;6.33;4.67
72509;PMS5003;60532;56.114;40.350;2023-08-01T10:18:08;6.25;6.25;4.75
72509;PMS5003;60532;56.114;40.350;2023-08-01T10:20:09;6.25;6.25;4.75
72509;PMS5003;60532;56.114;40.350;2023-08-01T10:22:10;7.00;7.00;5.00
72509;PMS5003;60532;56.114;40.350;2023-08-01T10:24:11;6.75;6.75;4.75
72509;PMS5003;60532;56.114;40.350;2023-08-01T10:26:13;6.00;4.75;3.75
72509;PMS5003;60532;56.114;40.350;2023-08-01T10:28:14;6.25;6.25;5.00
72509;PMS5003;60532;56.114;40.350;2023-08-01T10:30:14;8.33;7.00;5.67
72509;PMS5003;60532;56.114;40.350;2023-08-01T10:32:15;6.67;6.67;4.00
72509;PMS5003;60532;56.114;40.350;2023-08-01T10:34:17;6.00;6.00;4.25
72509;PMS5003;60532;56.114;40.350;2023-08-01T10:36:19;6.50;6.00;4.50
72509;PMS5003;60532;56.114;40.350;2023-08-01T10:38:20;7.00;7.00;5.00
72509;PMS5003;60532;56.114;40.350;2023-08-01T10:40:21;8.00;7.00;5.00
72509;PMS5003;60532;56.114;40.350;2023-08-01T10:42:42;6.00;6.00;4.25
72509;PMS5003;60532;56.114;40.350;2023-08-01T10:44:46;3.50;3.50;3.00
72509;PMS5003;60532;56.114;40.350;2023-08-01T10:48:53;5.75;5.50;4.00
72509;PMS5003;60532;56.114;40.350;2023-08-01T10:50:54;5.33;5.33;4.00
72509;PMS5003;60532;56.114;40.350;2023-08-01T10:53:01;10.00;6.50;4.25
72509;PMS5003;60532;56.114;40.350;2023-08-01T10:55:03;8.25;6.75;5.00
72509;PMS5003;60532;56.114;40.350;2023-08-01T10:57:05;7.00;5.50;4.00
72509;PMS5003;60532;56.114;40.350;2023-08-01T10:59:06;6.00;6.00;4.25
72509;PMS5003;60532;56.114;40.350;2023-08-01T11:01:07;8.25;7.50;5.00
72509;PMS5003;60532;56.114;40.350;2023-08-01T11:03:07;8.00;7.00;5.00
72509;PMS5003;60532;56.114;40.350;2023-08-01T11:05:08;8.33;6.67;5.00
72509;PMS5003;60532;56.114;40.350;2023-08-01T11:07:08;4.00;4.00;3.00
72509;PMS5003;60532;56.114;40.350;2023-08-01T11:09:22;7.25;7.25;5.25
72509;PMS5003;60532;56.114;40.350;2023-08-01T11:11:22;6.50;6.50;5.00
72509;PMS5003;60532;56.114;40.350;2023-08-01T11:13:23;9.67;7.00;5.00
72509;PMS5003;60532;56.114;40.350;2023-08-01T11:15:23;8.67;8.33;5.00
72509;PMS5003;60532;56.114;40.350;2023-08-01T11:17:24;6.33;6.33;5.00
72509;PMS5003;60532;56.114;40.350;2023-08-01T11:19:26;6.00;6.00;5.00
72509;PMS5003;60532;56.114;40.350;2023-08-01T11:21:27;8.25;8.25;5.50
72509;PMS5003;60532;56.114;40.350;2023-08-01T11:23:30;7.25;7.00;4.00
72509;PMS5003;60532;56.114;40.350;2023-08-01T11:25:38;8.33;7.00;6.00
72509;PMS5003;60532;56.114;40.350;2023-08-01T11:27:38;5.25;5.25;3.25
72509;PMS5003;60532;56.114;40.350;2023-08-01T11:29:39;6.67;6.67;5.00
72509;PMS5003;60532;56.114;40.350;2023-08-01T11:31:40;9.50;7.00;4.75
72509;PMS5003;60532;56.114;40.350;2023-08-01T11:33:41;8.25;8.25;6.00
72509;PMS5003;60532;56.114;40.350;2023-08-01T11:35:42;9.00;7.33;4.33